| time (UTC) | temp F | wind direction | speed MPH | gust MPH | rain 1hr in | rain 24hr in | rain mn in | humidity % | barometer mb |
| 20260903035542 | 66 | 129 | 0.0 | 1.0 | 0.00 | 0.00 | 0.00 | 68 | 1016.3 |
| 20260903035038 | 66 | 0 | 0.0 | 3.0 | 0.00 | 0.00 | 0.00 | 67 | 1016.2 |
| 20260903034603 | 67 | 0 | 0.0 | 3.0 | 0.00 | 0.00 | 0.00 | 65 | 1016.3 |
| 20260903034038 | 67 | 129 | 2.0 | 3.0 | 0.00 | 0.00 | 0.00 | 65 | 1016.3 |
| 20260903033537 | 67 | 129 | 0.0 | 4.0 | 0.00 | 0.00 | 0.00 | 64 | 1016.3 |
| 20260903033100 | 67 | 0 | 0.0 | 4.0 | 0.00 | 0.00 | 0.00 | 65 | 1016.1 |
| 20260903032538 | 67 | 83 | 2.0 | 5.0 | 0.00 | 0.00 | 0.00 | 68 | 1016.1 |
| 20260903032040 | 67 | 60 | 0.0 | 5.0 | 0.00 | 0.00 | 0.00 | 63 | 1016.3 |
| 20260903031600 | 67 | 318 | 1.0 | 6.0 | 0.00 | 0.00 | 0.00 | 64 | 1016.3 |
| 20260903031039 | 67 | 328 | 2.0 | 6.0 | 0.00 | 0.00 | 0.00 | 65 | 1016.2 |
| 20260903030539 | 67 | 0 | 0.0 | 6.0 | 0.00 | 0.00 | 0.00 | 65 | 1016.3 |
| 20260903030057 | 67 | 0 | 1.0 | 6.0 | 0.00 | 0.00 | 0.00 | 63 | 1016.1 |
| 20260903025539 | 68 | 6 | 3.0 | 6.0 | 0.00 | 0.00 | 0.00 | 63 | 1015.9 |
| 20260903025040 | 68 | 0 | 1.0 | 4.0 | 0.00 | 0.00 | 0.00 | 61 | 1016.0 |
| 20260903024607 | 68 | 342 | 1.0 | 3.0 | 0.00 | 0.00 | 0.00 | 61 | 1016.1 |
| 20260903024037 | 68 | 0 | 0.0 | 2.0 | 0.00 | 0.00 | 0.00 | 61 | 1016.3 |
| 20260903023538 | 69 | 0 | 0.0 | 3.0 | 0.00 | 0.00 | 0.00 | 60 | 1016.3 |
| 20260903023102 | 69 | 347 | 1.0 | 3.0 | 0.00 | 0.00 | 0.00 | 58 | 1016.2 |
| 20260903022541 | 69 | 0 | 0.0 | 3.0 | 0.00 | 0.00 | 0.00 | 57 | 1016.1 |
| 20260903022038 | 69 | 262 | 0.0 | 3.0 | 0.00 | 0.00 | 0.00 | 56 | 1016.2 |
| 20260903021600 | 69 | 0 | 0.0 | 3.0 | 0.00 | 0.00 | 0.00 | 55 | 1016.2 |
| 20260903021037 | 69 | 0 | 0.0 | 3.0 | 0.00 | 0.00 | 0.00 | 55 | 1016.2 |
| 20260903020538 | 69 | 38 | 0.0 | 3.0 | 0.00 | 0.00 | 0.00 | 57 | 1016.1 |
| 20260903020053 | 70 | 0 | 1.0 | 4.0 | 0.00 | 0.00 | 0.00 | 54 | 1016.1 |
| 20260903015538 | 70 | 347 | 2.0 | 4.0 | 0.00 | 0.00 | 0.00 | 53 | 1015.9 |
| 20260903015038 | 70 | 52 | 1.0 | 4.0 | 0.00 | 0.00 | 0.00 | 54 | 1015.9 |
| 20260903014601 | 70 | 0 | 0.0 | 4.0 | 0.00 | 0.00 | 0.00 | 53 | 1015.9 |
| 20260903014040 | 70 | 61 | 2.0 | 4.0 | 0.00 | 0.00 | 0.00 | 55 | 1015.9 |
| 20260903013538 | 71 | 28 | 0.0 | 7.0 | 0.00 | 0.00 | 0.00 | 53 | 1015.9 |
| 20260903013059 | 71 | 46 | 2.0 | 7.0 | 0.00 | 0.00 | 0.00 | 53 | 1015.8 |
| 20260903012534 | 71 | 29 | 3.0 | 8.0 | 0.00 | 0.00 | 0.00 | 52 | 1015.8 |
| 20260903012038 | 72 | 328 | 3.0 | 8.0 | 0.00 | 0.00 | 0.00 | 51 | 1015.9 |
| 20260903011558 | 72 | 12 | 3.0 | 5.0 | 0.00 | 0.00 | 0.00 | 51 | 1015.9 |
| 20260903011034 | 73 | 0 | 1.0 | 8.0 | 0.00 | 0.00 | 0.00 | 49 | 1015.9 |
| 20260903010534 | 73 | 13 | 3.0 | 10.0 | 0.00 | 0.00 | 0.00 | 48 | 1016.0 |
| 20260903010055 | 73 | 38 | 4.0 | 12.0 | 0.00 | 0.00 | 0.00 | 47 | 1016.0 |
| 20260903005538 | 73 | 41 | 6.0 | 12.0 | 0.00 | 0.00 | 0.00 | 48 | 1015.9 |
| 20260903005042 | 73 | 69 | 6.0 | 12.0 | 0.00 | 0.00 | 0.00 | 50 | 1015.7 |
| 20260903004558 | 73 | 23 | 6.0 | 12.0 | 0.00 | 0.00 | 0.00 | 52 | 1015.8 |
| 20260903004038 | 73 | 80 | 6.0 | 12.0 | 0.00 | 0.00 | 0.00 | 53 | 1015.9 |
| 20260903003537 | 74 | 60 | 4.0 | 11.0 | 0.00 | 0.00 | 0.00 | 51 | 1015.9 |
| 20260903003058 | 74 | 70 | 6.0 | 14.0 | 0.00 | 0.00 | 0.00 | 49 | 1016.0 |
| 20260903002538 | 74 | 17 | 5.0 | 14.0 | 0.00 | 0.00 | 0.00 | 48 | 1016.1 |
| 20260903002038 | 74 | 30 | 7.0 | 16.0 | 0.00 | 0.00 | 0.00 | 49 | 1016.3 |
| 20260903001605 | 75 | 12 | 8.0 | 16.0 | 0.00 | 0.00 | 0.00 | 48 | 1016.3 |
| 20260903001037 | 75 | 342 | 4.0 | 11.0 | 0.00 | 0.00 | 0.00 | 46 | 1016.2 |
| 20260903000540 | 76 | 289 | 2.0 | 11.0 | 0.00 | 0.00 | 0.00 | 45 | 1016.2 |
| 20260902235538 | 76 | 287 | 4.0 | 12.0 | 0.00 | 0.00 | 0.00 | 44 | 1016.1 |
| 20260902235038 | 76 | 239 | 5.0 | 15.0 | 0.00 | 0.00 | 0.00 | 44 | 1016.2 |
| 20260902234603 | 77 | 289 | 6.0 | 20.0 | 0.00 | 0.00 | 0.00 | 43 | 1016.2 |
| 20260902234038 | 77 | 329 | 8.0 | 24.0 | 0.00 | 0.00 | 0.00 | 41 | 1016.0 |
| 20260902233538 | 79 | 308 | 11.0 | 30.0 | 0.00 | 0.00 | 0.00 | 37 | 1016.2 |
| 20260902233058 | 80 | 287 | 11.0 | 30.0 | 0.00 | 0.00 | 0.00 | 35 | 1016.3 |
| 20260902232538 | 82 | 275 | 7.0 | 16.0 | 0.00 | 0.00 | 0.00 | 30 | 1016.5 |
| 20260902232038 | 83 | 285 | 3.0 | 7.0 | 0.00 | 0.00 | 0.00 | 32 | 1016.2 |
| 20260902231559 | 83 | 0 | 0.0 | 9.0 | 0.00 | 0.00 | 0.00 | 30 | 1015.5 |
| 20260902231038 | 84 | 150 | 3.0 | 9.0 | 0.00 | 0.00 | 0.00 | 30 | 1015.1 |
| 20260902230537 | 84 | 347 | 3.0 | 10.0 | 0.00 | 0.00 | 0.00 | 27 | 1015.0 |
| 20260902230114 | 84 | 215 | 3.0 | 10.0 | 0.00 | 0.00 | 0.00 | 26 | 1014.9 |
| 20260902225537 | 84 | 347 | 3.0 | 12.0 | 0.00 | 0.00 | 0.00 | 28 | 1014.8 |
| 20260902225039 | 84 | 347 | 3.0 | 12.0 | 0.00 | 0.00 | 0.00 | 27 | 1014.7 |
| 20260902224558 | 85 | 132 | 5.0 | 12.0 | 0.00 | 0.00 | 0.00 | 26 | 1014.6 |
| 20260902224038 | 85 | 160 | 4.0 | 11.0 | 0.00 | 0.00 | 0.00 | 25 | 1014.4 |
| 20260902223538 | 85 | 162 | 3.0 | 11.0 | 0.00 | 0.00 | 0.00 | 26 | 1014.4 |
| 20260902223056 | 85 | 126 | 5.0 | 11.0 | 0.00 | 0.00 | 0.00 | 27 | 1014.4 |
| 20260902222538 | 85 | 87 | 3.0 | 10.0 | 0.00 | 0.00 | 0.00 | 27 | 1014.4 |
| 20260902222048 | 85 | 123 | 2.0 | 13.0 | 0.00 | 0.00 | 0.00 | 26 | 1014.6 |
| 20260902221601 | 85 | 88 | 4.0 | 16.0 | 0.00 | 0.00 | 0.00 | 26 | 1014.5 |
| 20260902221037 | 85 | 52 | 6.0 | 16.0 | 0.00 | 0.00 | 0.00 | 27 | 1014.5 |
| 20260902220538 | 86 | 96 | 7.0 | 16.0 | 0.00 | 0.00 | 0.00 | 25 | 1014.6 |
| 20260902220057 | 86 | 95 | 4.0 | 14.0 | 0.00 | 0.00 | 0.00 | 28 | 1014.6 |
| 20260902215537 | 86 | 144 | 7.0 | 16.0 | 0.00 | 0.00 | 0.00 | 26 | 1014.8 |
| 20260902215039 | 86 | 94 | 6.0 | 16.0 | 0.00 | 0.00 | 0.00 | 24 | 1014.9 |
| 20260902214612 | 86 | 118 | 6.0 | 14.0 | 0.00 | 0.00 | 0.00 | 26 | 1015.0 |
| 20260902214038 | 86 | 62 | 5.0 | 11.0 | 0.00 | 0.00 | 0.00 | 28 | 1015.1 |
| 20260902213537 | 86 | 118 | 4.0 | 15.0 | 0.00 | 0.00 | 0.00 | 28 | 1015.1 |
| 20260902213056 | 87 | 131 | 7.0 | 15.0 | 0.00 | 0.00 | 0.00 | 28 | 1015.1 |
| 20260902212534 | 87 | 118 | 7.0 | 14.0 | 0.00 | 0.00 | 0.00 | 25 | 1015.2 |
| 20260902212038 | 87 | 101 | 5.0 | 14.0 | 0.00 | 0.00 | 0.00 | 26 | 1015.2 |
| 20260902211551 | 87 | 118 | 6.0 | 14.0 | 0.00 | 0.00 | 0.00 | 25 | 1015.4 |
| 20260902211038 | 87 | 121 | 5.0 | 14.0 | 0.00 | 0.00 | 0.00 | 25 | 1015.2 |
| 20260902210538 | 87 | 191 | 6.0 | 13.0 | 0.00 | 0.00 | 0.00 | 25 | 1015.3 |
| 20260902210116 | 87 | 115 | 4.0 | 14.0 | 0.00 | 0.00 | 0.00 | 25 | 1015.6 |
| 20260902205537 | 87 | 158 | 6.0 | 14.0 | 0.00 | 0.00 | 0.00 | 26 | 1015.7 |
| 20260902205038 | 87 | 165 | 6.0 | 14.0 | 0.00 | 0.00 | 0.00 | 25 | 1015.8 |
| 20260902204601 | 87 | 132 | 4.0 | 17.0 | 0.00 | 0.00 | 0.00 | 27 | 1015.7 |
| 20260902204038 | 87 | 125 | 6.0 | 17.0 | 0.00 | 0.00 | 0.00 | 25 | 1015.9 |
| 20260902203534 | 86 | 154 | 4.0 | 16.0 | 0.00 | 0.00 | 0.00 | 26 | 1015.9 |
| 20260902203100 | 86 | 119 | 6.0 | 16.0 | 0.00 | 0.00 | 0.00 | 25 | 1016.0 |
| 20260902202534 | 86 | 144 | 6.0 | 15.0 | 0.00 | 0.00 | 0.00 | 26 | 1016.1 |
| 20260902202039 | 86 | 177 | 6.0 | 13.0 | 0.00 | 0.00 | 0.00 | 26 | 1016.1 |
| 20260902201555 | 86 | 121 | 3.0 | 13.0 | 0.00 | 0.00 | 0.00 | 26 | 1016.1 |
| 20260902201041 | 86 | 142 | 6.0 | 13.0 | 0.00 | 0.00 | 0.00 | 26 | 1016.2 |
| 20260902200538 | 86 | 150 | 5.0 | 16.0 | 0.00 | 0.00 | 0.00 | 29 | 1016.2 |
| 20260902200111 | 86 | 187 | 4.0 | 16.0 | 0.00 | 0.00 | 0.00 | 25 | 1016.3 |
| 20260902195538 | 86 | 131 | 7.0 | 16.0 | 0.00 | 0.00 | 0.00 | 26 | 1016.4 |
| 20260902195038 | 86 | 122 | 4.0 | 14.0 | 0.00 | 0.00 | 0.00 | 29 | 1016.4 |
| 20260902194603 | 86 | 112 | 5.0 | 14.0 | 0.00 | 0.00 | 0.00 | 28 | 1016.5 |
| 20260902194035 | 86 | 150 | 4.0 | 14.0 | 0.00 | 0.00 | 0.00 | 26 | 1016.5 |
| 20260902193538 | 86 | 134 | 5.0 | 12.0 | 0.00 | 0.00 | 0.00 | 27 | 1016.6 |
| 20260902193057 | 86 | 162 | 6.0 | 12.0 | 0.00 | 0.00 | 0.00 | 25 | 1016.6 |
| 20260902192537 | 86 | 97 | 4.0 | 14.0 | 0.00 | 0.00 | 0.00 | 26 | 1016.7 |
| 20260902192037 | 86 | 81 | 3.0 | 14.0 | 0.00 | 0.00 | 0.00 | 27 | 1016.8 |
| 20260902191600 | 85 | 149 | 5.0 | 14.0 | 0.00 | 0.00 | 0.00 | 25 | 1016.8 |
| 20260902191037 | 85 | 77 | 4.0 | 15.0 | 0.00 | 0.00 | 0.00 | 29 | 1016.8 |
| 20260902190541 | 84 | 82 | 7.0 | 15.0 | 0.00 | 0.00 | 0.00 | 28 | 1017.0 |
| 20260902190125 | 85 | 121 | 5.0 | 14.0 | 0.00 | 0.00 | 0.00 | 27 | 1017.1 |
| 20260902185538 | 84 | 107 | 6.0 | 13.0 | 0.00 | 0.00 | 0.00 | 29 | 1017.2 |
| 20260902185037 | 85 | 123 | 6.0 | 13.0 | 0.00 | 0.00 | 0.00 | 30 | 1017.3 |
| 20260902184607 | 84 | 117 | 6.0 | 14.0 | 0.00 | 0.00 | 0.00 | 30 | 1017.3 |
| 20260902184038 | 84 | 104 | 5.0 | 14.0 | 0.00 | 0.00 | 0.00 | 32 | 1017.4 |
| 20260902183538 | 84 | 165 | 6.0 | 17.0 | 0.00 | 0.00 | 0.00 | 26 | 1017.5 |
| 20260902183057 | 84 | 134 | 7.0 | 17.0 | 0.00 | 0.00 | 0.00 | 28 | 1017.6 |
| 20260902182537 | 84 | 78 | 6.0 | 14.0 | 0.00 | 0.00 | 0.00 | 30 | 1017.7 |
| 20260902182037 | 84 | 176 | 3.0 | 14.0 | 0.00 | 0.00 | 0.00 | 31 | 1017.9 |
| 20260902181610 | 84 | 126 | 6.0 | 14.0 | 0.00 | 0.00 | 0.00 | 29 | 1017.9 |
| 20260902181037 | 83 | 108 | 4.0 | 14.0 | 0.00 | 0.00 | 0.00 | 30 | 1018.1 |
| 20260902180537 | 83 | 113 | 5.0 | 15.0 | 0.00 | 0.00 | 0.00 | 30 | 1018.1 |
| 20260902180054 | 83 | 133 | 5.0 | 15.0 | 0.00 | 0.00 | 0.00 | 31 | 1018.3 |
| 20260902175538 | 83 | 125 | 5.0 | 16.0 | 0.00 | 0.00 | 0.00 | 28 | 1018.3 |
| 20260902175040 | 83 | 98 | 5.0 | 16.0 | 0.00 | 0.00 | 0.00 | 29 | 1018.3 |
| 20260902174556 | 83 | 115 | 4.0 | 14.0 | 0.00 | 0.00 | 0.00 | 30 | 1018.4 |
| 20260902174037 | 83 | 153 | 5.0 | 14.0 | 0.00 | 0.00 | 0.00 | 28 | 1018.4 |
| 20260902173537 | 83 | 155 | 4.0 | 11.0 | 0.00 | 0.00 | 0.00 | 31 | 1018.4 |
| 20260902173059 | 82 | 112 | 3.0 | 12.0 | 0.00 | 0.00 | 0.00 | 30 | 1018.5 |
| 20260902172538 | 82 | 121 | 5.0 | 12.0 | 0.00 | 0.00 | 0.00 | 31 | 1018.6 |
| 20260902172038 | 83 | 131 | 5.0 | 12.0 | 0.00 | 0.00 | 0.00 | 31 | 1018.8 |
| 20260902171619 | 83 | 117 | 3.0 | 9.0 | 0.00 | 0.00 | 0.00 | 31 | 1018.7 |
| 20260902171037 | 82 | 140 | 3.0 | 11.0 | 0.00 | 0.00 | 0.00 | 33 | 1018.8 |
| 20260902170537 | 82 | 179 | 3.0 | 11.0 | 0.00 | 0.00 | 0.00 | 37 | 1018.8 |
| 20260902170056 | 82 | 141 | 5.0 | 11.0 | 0.00 | 0.00 | 0.00 | 33 | 1018.8 |
| 20260902165537 | 82 | 121 | 4.0 | 10.0 | 0.00 | 0.00 | 0.00 | 36 | 1018.9 |
| 20260902165037 | 81 | 118 | 2.0 | 8.0 | 0.00 | 0.00 | 0.00 | 34 | 1019.0 |
| 20260902164604 | 80 | 190 | 1.0 | 6.0 | 0.00 | 0.00 | 0.00 | 34 | 1018.9 |
| 20260902164035 | 79 | 151 | 0.0 | 5.0 | 0.00 | 0.00 | 0.00 | 36 | 1018.9 |
| 20260902163540 | 79 | 83 | 2.0 | 6.0 | 0.00 | 0.00 | 0.00 | 37 | 1019.0 |
| 20260902163059 | 78 | 160 | 2.0 | 6.0 | 0.00 | 0.00 | 0.00 | 39 | 1019.0 |
| 20260902162537 | 78 | 79 | 2.0 | 6.0 | 0.00 | 0.00 | 0.00 | 36 | 1019.1 |
| 20260902162041 | 78 | 164 | 3.0 | 7.0 | 0.00 | 0.00 | 0.00 | 39 | 1019.1 |
| 20260902161603 | 78 | 188 | 2.0 | 8.0 | 0.00 | 0.00 | 0.00 | 38 | 1019.1 |
| 20260902161037 | 77 | 114 | 3.0 | 8.0 | 0.00 | 0.00 | 0.00 | 37 | 1019.1 |
| 20260902160537 | 77 | 148 | 2.0 | 6.0 | 0.00 | 0.00 | 0.00 | 41 | 1018.9 |
| 20260902160055 | 77 | 169 | 1.0 | 7.0 | 0.00 | 0.00 | 0.00 | 42 | 1019.1 |
| 20260902155537 | 77 | 173 | 1.0 | 7.0 | 0.00 | 0.00 | 0.00 | 40 | 1019.0 |
| 20260902155034 | 76 | 158 | 3.0 | 7.0 | 0.00 | 0.00 | 0.00 | 40 | 1018.9 |
| 20260902154556 | 75 | 165 | 3.0 | 7.0 | 0.00 | 0.00 | 0.00 | 43 | 1018.9 |
| 20260902154038 | 75 | 113 | 2.0 | 7.0 | 0.00 | 0.00 | 0.00 | 40 | 1018.9 |
| 20260902153534 | 74 | 152 | 2.0 | 6.0 | 0.00 | 0.00 | 0.00 | 43 | 1018.9 |
| 20260902153055 | 74 | 173 | 3.0 | 6.0 | 0.00 | 0.00 | 0.00 | 43 | 1018.9 |
| 20260902152537 | 74 | 161 | 2.0 | 5.0 | 0.00 | 0.00 | 0.00 | 41 | 1018.9 |
| 20260902152041 | 73 | 158 | 2.0 | 5.0 | 0.00 | 0.00 | 0.00 | 44 | 1018.9 |
| 20260902151550 | 73 | 0 | 2.0 | 6.0 | 0.00 | 0.00 | 0.00 | 46 | 1018.9 |
| 20260902151034 | 72 | 0 | 0.0 | 6.0 | 0.00 | 0.00 | 0.00 | 47 | 1018.9 |
| 20260902150537 | 71 | 206 | 3.0 | 6.0 | 0.00 | 0.00 | 0.00 | 50 | 1019.0 |
| 20260902150058 | 71 | 147 | 0.0 | 3.0 | 0.00 | 0.00 | 0.00 | 49 | 1018.8 |
| 20260902145538 | 71 | 0 | 0.0 | 3.0 | 0.00 | 0.00 | 0.00 | 51 | 1018.9 |
| 20260902145037 | 70 | 114 | 1.0 | 3.0 | 0.00 | 0.00 | 0.00 | 52 | 1018.8 |
| 20260902144559 | 69 | 29 | 1.0 | 3.0 | 0.00 | 0.00 | 0.00 | 51 | 1018.8 |
| 20260902144038 | 67 | 246 | 0.0 | 3.0 | 0.00 | 0.00 | 0.00 | 55 | 1018.9 |
| 20260902143537 | 66 | 45 | 1.0 | 4.0 | 0.00 | 0.00 | 0.00 | 57 | 1018.8 |
| 20260902143054 | 65 | 0 | 0.0 | 4.0 | 0.00 | 0.00 | 0.00 | 59 | 1018.9 |
| 20260902142537 | 64 | 181 | 1.0 | 4.0 | 0.00 | 0.00 | 0.00 | 62 | 1018.8 |
| 20260902142033 | 63 | 50 | 1.0 | 3.0 | 0.00 | 0.00 | 0.00 | 63 | 1018.9 |
| 20260902141552 | 63 | 0 | 1.0 | 4.0 | 0.00 | 0.00 | 0.00 | 64 | 1018.8 |
| 20260902141037 | 62 | 221 | 0.0 | 4.0 | 0.00 | 0.00 | 0.00 | 66 | 1018.7 |
| 20260902140534 | 61 | 4 | 1.0 | 4.0 | 0.00 | 0.00 | 0.00 | 67 | 1018.6 |
| 20260902140058 | 60 | 274 | 1.0 | 4.0 | 0.00 | 0.00 | 0.00 | 68 | 1018.6 |
| 20260902135536 | 60 | 0 | 0.0 | 4.0 | 0.00 | 0.00 | 0.00 | 68 | 1018.6 |
| 20260902135038 | 60 | 0 | 0.0 | 3.0 | 0.00 | 0.00 | 0.00 | 68 | 1018.6 |
| 20260902134610 | 60 | 241 | 1.0 | 3.0 | 0.00 | 0.00 | 0.00 | 67 | 1018.6 |
| 20260902134034 | 59 | 255 | 0.0 | 4.0 | 0.00 | 0.00 | 0.00 | 67 | 1018.5 |
| 20260902133537 | 59 | 332 | 1.0 | 4.0 | 0.00 | 0.00 | 0.00 | 68 | 1018.4 |
| 20260902133055 | 58 | 269 | 0.0 | 2.0 | 0.00 | 0.00 | 0.00 | 67 | 1018.4 |
| 20260902132537 | 58 | 272 | 0.0 | 2.0 | 0.00 | 0.00 | 0.00 | 68 | 1018.4 |
| 20260902132037 | 58 | 347 | 0.0 | 2.0 | 0.00 | 0.00 | 0.00 | 69 | 1018.4 |
| 20260902131549 | 57 | 0 | 0.0 | 2.0 | 0.00 | 0.00 | 0.00 | 71 | 1018.3 |
| 20260902131039 | 56 | 0 | 0.0 | 2.0 | 0.00 | 0.00 | 0.00 | 71 | 1018.4 |
| 20260902130534 | 56 | 0 | 0.0 | 3.0 | 0.00 | 0.00 | 0.00 | 72 | 1018.3 |
| 20260902130059 | 56 | 0 | 0.0 | 3.0 | 0.00 | 0.00 | 0.00 | 72 | 1018.2 |
| 20260902125537 | 56 | 298 | 1.0 | 3.0 | 0.00 | 0.00 | 0.00 | 73 | 1018.1 |
| 20260902125038 | 56 | 0 | 0.0 | 2.0 | 0.00 | 0.00 | 0.00 | 74 | 1018.2 |
| 20260902124556 | 56 | 0 | 0.0 | 4.0 | 0.00 | 0.00 | 0.00 | 74 | 1018.2 |
| 20260902124037 | 56 | 313 | 1.0 | 4.0 | 0.00 | 0.00 | 0.00 | 74 | 1018.3 |
| 20260902123537 | 56 | 272 | 1.0 | 3.0 | 0.00 | 0.00 | 0.00 | 72 | 1018.3 |
| 20260902123058 | 56 | 0 | 1.0 | 4.0 | 0.00 | 0.00 | 0.00 | 72 | 1018.2 |
| 20260902122542 | 56 | 292 | 0.0 | 4.0 | 0.00 | 0.00 | 0.00 | 71 | 1018.1 |
| 20260902122037 | 57 | 296 | 1.0 | 8.0 | 0.00 | 0.00 | 0.00 | 71 | 1018.1 |
| 20260902121549 | 57 | 0 | 0.0 | 8.0 | 0.00 | 0.00 | 0.00 | 71 | 1017.9 |
| 20260902121037 | 57 | 240 | 2.0 | 7.0 | 0.00 | 0.00 | 0.00 | 74 | 1018.0 |
| 20260902120536 | 57 | 243 | 1.0 | 5.0 | 0.00 | 0.00 | 0.00 | 70 | 1017.9 |
| 20260902120100 | 57 | 122 | 2.0 | 5.0 | 0.00 | 0.00 | 0.00 | 71 | 1017.9 |
| 20260902115537 | 57 | 0 | 0.0 | 2.0 | 0.00 | 0.00 | 0.00 | 69 | 1017.9 |
| 20260902115038 | 56 | 237 | 0.0 | 2.0 | 0.00 | 0.00 | 0.00 | 71 | 1017.8 |
| 20260902114556 | 56 | 0 | 0.0 | 2.0 | 0.00 | 0.00 | 0.00 | 72 | 1017.8 |
| 20260902114036 | 56 | 237 | 1.0 | 3.0 | 0.00 | 0.00 | 0.00 | 71 | 1017.9 |
| 20260902113537 | 56 | 0 | 1.0 | 4.0 | 0.00 | 0.00 | 0.00 | 71 | 1017.9 |
| 20260902113054 | 56 | 0 | 0.0 | 4.0 | 0.00 | 0.00 | 0.00 | 72 | 1017.8 |
| 20260902112537 | 56 | 237 | 2.0 | 4.0 | 0.00 | 0.00 | 0.00 | 71 | 1017.9 |
| 20260902112036 | 57 | 0 | 1.0 | 3.0 | 0.00 | 0.00 | 0.00 | 71 | 1017.9 |
| 20260902111558 | 57 | 242 | 1.0 | 3.0 | 0.00 | 0.00 | 0.00 | 72 | 1017.9 |
| 20260902111034 | 57 | 0 | 0.0 | 1.0 | 0.00 | 0.00 | 0.00 | 73 | 1017.9 |
| 20260902110537 | 57 | 0 | 0.0 | 1.0 | 0.00 | 0.00 | 0.00 | 74 | 1017.9 |
| 20260902110055 | 58 | 0 | 0.0 | 2.0 | 0.00 | 0.00 | 0.00 | 74 | 1017.8 |
| 20260902105537 | 58 | 0 | 0.0 | 2.0 | 0.00 | 0.00 | 0.00 | 74 | 1017.8 |
| 20260902105038 | 57 | 0 | 0.0 | 2.0 | 0.00 | 0.00 | 0.00 | 74 | 1017.7 |
| 20260902104553 | 57 | 337 | 0.0 | 3.0 | 0.00 | 0.00 | 0.00 | 73 | 1017.7 |
| 20260902104038 | 57 | 337 | 0.0 | 3.0 | 0.00 | 0.00 | 0.00 | 73 | 1017.7 |
| 20260902103537 | 57 | 304 | 1.0 | 3.0 | 0.00 | 0.00 | 0.00 | 74 | 1017.8 |
| 20260902103051 | 58 | 342 | 1.0 | 3.0 | 0.00 | 0.00 | 0.00 | 73 | 1017.8 |
| 20260902102537 | 58 | 2 | 1.0 | 3.0 | 0.00 | 0.00 | 0.00 | 72 | 1017.8 |
| 20260902102038 | 58 | 0 | 0.0 | 4.0 | 0.00 | 0.00 | 0.00 | 72 | 1017.8 |
| 20260902101556 | 58 | 316 | 0.0 | 4.0 | 0.00 | 0.00 | 0.00 | 70 | 1017.8 |
| 20260902101037 | 59 | 347 | 2.0 | 4.0 | 0.00 | 0.00 | 0.00 | 69 | 1017.8 |
| 20260902100538 | 59 | 342 | 2.0 | 3.0 | 0.00 | 0.00 | 0.00 | 68 | 1017.8 |
| 20260902100057 | 59 | 6 | 2.0 | 3.0 | 0.00 | 0.00 | 0.00 | 68 | 1017.9 |
| 20260902095538 | 59 | 5 | 0.0 | 3.0 | 0.00 | 0.00 | 0.00 | 68 | 1017.9 |
| 20260902095037 | 59 | 0 | 1.0 | 3.0 | 0.00 | 0.00 | 0.00 | 67 | 1017.9 |
| 20260902094557 | 60 | 360 | 1.0 | 3.0 | 0.00 | 0.00 | 0.00 | 67 | 1017.8 |
| 20260902094037 | 60 | 273 | 0.0 | 5.0 | 0.00 | 0.00 | 0.00 | 65 | 1017.9 |
| 20260902093537 | 60 | 17 | 1.0 | 5.0 | 0.00 | 0.00 | 0.00 | 65 | 1017.8 |
| 20260902093056 | 59 | 53 | 2.0 | 5.0 | 0.00 | 0.00 | 0.00 | 67 | 1017.9 |
| 20260902092534 | 59 | 27 | 1.0 | 3.0 | 0.00 | 0.00 | 0.00 | 68 | 1018.0 |
| 20260902092037 | 59 | 356 | 1.0 | 3.0 | 0.00 | 0.00 | 0.00 | 69 | 1018.0 |
| 20260902091557 | 59 | 36 | 2.0 | 4.0 | 0.00 | 0.00 | 0.00 | 70 | 1017.9 |
| 20260902091037 | 59 | 10 | 1.0 | 4.0 | 0.00 | 0.00 | 0.00 | 70 | 1017.9 |
| 20260902090538 | 58 | 42 | 2.0 | 4.0 | 0.00 | 0.00 | 0.00 | 70 | 1017.9 |
| 20260902090055 | 58 | 3 | 2.0 | 4.0 | 0.00 | 0.00 | 0.00 | 68 | 1017.9 |
| 20260902085537 | 59 | 324 | 1.0 | 4.0 | 0.00 | 0.00 | 0.00 | 68 | 1017.9 |
| 20260902085037 | 59 | 315 | 0.0 | 3.0 | 0.00 | 0.00 | 0.00 | 68 | 1017.9 |
| 20260902084603 | 59 | 306 | 0.0 | 3.0 | 0.00 | 0.00 | 0.00 | 68 | 1017.9 |
| 20260902084037 | 59 | 0 | 1.0 | 4.0 | 0.00 | 0.00 | 0.00 | 68 | 1017.9 |
| 20260902083538 | 59 | 310 | 1.0 | 4.0 | 0.00 | 0.00 | 0.00 | 69 | 1017.9 |
| 20260902083105 | 59 | 303 | 1.0 | 4.0 | 0.00 | 0.00 | 0.00 | 70 | 1017.8 |
| 20260902082538 | 59 | 319 | 0.0 | 5.0 | 0.00 | 0.00 | 0.00 | 71 | 1017.9 |
| 20260902082036 | 59 | 356 | 2.0 | 5.0 | 0.00 | 0.00 | 0.00 | 70 | 1017.7 |
| 20260902081557 | 59 | 29 | 3.0 | 4.0 | 0.00 | 0.00 | 0.00 | 72 | 1017.7 |
| 20260902081037 | 59 | 11 | 2.0 | 4.0 | 0.00 | 0.00 | 0.00 | 74 | 1017.7 |
| 20260902080537 | 59 | 4 | 0.0 | 3.0 | 0.00 | 0.00 | 0.00 | 74 | 1017.8 |
| 20260902080058 | 59 | 0 | 0.0 | 2.0 | 0.00 | 0.00 | 0.00 | 74 | 1017.8 |
| 20260902075536 | 59 | 0 | 0.0 | 3.0 | 0.00 | 0.00 | 0.00 | 74 | 1018.0 |
| 20260902075040 | 59 | 0 | 0.0 | 3.0 | 0.00 | 0.00 | 0.00 | 73 | 1018.0 |
| 20260902074608 | 60 | 357 | 1.0 | 3.0 | 0.00 | 0.00 | 0.00 | 73 | 1017.9 |
| 20260902074037 | 60 | 342 | 0.0 | 3.0 | 0.00 | 0.00 | 0.00 | 71 | 1018.0 |
| 20260902073537 | 60 | 317 | 0.0 | 3.0 | 0.00 | 0.00 | 0.00 | 71 | 1018.0 |
| 20260902073057 | 60 | 0 | 0.0 | 3.0 | 0.00 | 0.00 | 0.00 | 71 | 1018.0 |
| 20260902072538 | 60 | 0 | 0.0 | 4.0 | 0.00 | 0.00 | 0.00 | 72 | 1018.0 |
| 20260902072037 | 60 | 322 | 0.0 | 4.0 | 0.00 | 0.00 | 0.00 | 72 | 1018.1 |
| 20260902071558 | 61 | 26 | 2.0 | 4.0 | 0.00 | 0.00 | 0.00 | 73 | 1018.1 |
| 20260902071037 | 61 | 27 | 0.0 | 3.0 | 0.00 | 0.00 | 0.00 | 71 | 1018.1 |
| 20260902070536 | 61 | 0 | 0.0 | 3.0 | 0.00 | 0.00 | 0.00 | 70 | 1018.1 |
| 20260902065536 | 62 | 2 | 0.0 | 4.0 | 0.00 | 0.00 | 0.00 | 70 | 1018.0 |
| 20260902065036 | 62 | 4 | 1.0 | 4.0 | 0.00 | 0.00 | 0.00 | 69 | 1018.1 |
| 20260902064556 | 62 | 356 | 2.0 | 5.0 | 0.00 | 0.00 | 0.00 | 69 | 1018.2 |
| 20260902064036 | 62 | 4 | 2.0 | 5.0 | 0.00 | 0.00 | 0.00 | 67 | 1018.1 |
| 20260902063536 | 63 | 360 | 2.0 | 4.0 | 0.00 | 0.00 | 0.00 | 66 | 1018.1 |
| 20260902063112 | 63 | 317 | 1.0 | 3.0 | 0.00 | 0.00 | 0.00 | 66 | 1018.1 |
| 20260902062537 | 64 | 0 | 0.0 | 2.0 | 0.00 | 0.00 | 0.00 | 69 | 1018.1 |
| 20260902062037 | 64 | 335 | 0.0 | 2.0 | 0.00 | 0.00 | 0.00 | 65 | 1018.1 |
| 20260902061553 | 64 | 335 | 1.0 | 2.0 | 0.00 | 0.00 | 0.00 | 69 | 1018.1 |
| 20260902061037 | 64 | 0 | 0.0 | 2.0 | 0.00 | 0.00 | 0.00 | 70 | 1018.2 |
| 20260902060539 | 64 | 0 | 0.0 | 2.0 | 0.00 | 0.00 | 0.00 | 63 | 1018.2 |
| 20260902060122 | 64 | 0 | 0.0 | 2.0 | 0.00 | 0.00 | 0.00 | 65 | 1018.2 |
| 20260902055537 | 64 | 0 | 0.0 | 2.0 | 0.00 | 0.00 | 0.00 | 69 | 1018.3 |
| 20260902055034 | 64 | 50 | 0.0 | 2.0 | 0.00 | 0.00 | 0.00 | 72 | 1018.3 |
| 20260902054609 | 64 | 0 | 0.0 | 2.0 | 0.00 | 0.00 | 0.00 | 69 | 1018.2 |
| 20260902054036 | 64 | 0 | 0.0 | 1.0 | 0.00 | 0.00 | 0.00 | 69 | 1018.1 |
| 20260902053536 | 64 | 0 | 0.0 | 2.0 | 0.00 | 0.00 | 0.00 | 65 | 1018.2 |
| 20260902053055 | 64 | 0 | 0.0 | 2.0 | 0.00 | 0.00 | 0.00 | 65 | 1018.2 |
| 20260902052540 | 64 | 0 | 0.0 | 2.0 | 0.00 | 0.00 | 0.00 | 67 | 1018.1 |
| 20260902052037 | 64 | 0 | 0.0 | 4.0 | 0.00 | 0.00 | 0.00 | 66 | 1018.1 |
| 20260902051558 | 64 | 53 | 1.0 | 4.0 | 0.00 | 0.00 | 0.00 | 69 | 1018.1 |
| 20260902051037 | 65 | 320 | 0.0 | 1.0 | 0.00 | 0.00 | 0.00 | 68 | 1018.1 |
| 20260902050537 | 65 | 0 | 0.0 | 1.0 | 0.00 | 0.00 | 0.00 | 65 | 1018.0 |
| 20260902045538 | 65 | 0 | 0.0 | 1.0 | 0.00 | 0.02 | 0.00 | 67 | 1018.1 |
| 20260902045038 | 66 | 0 | 0.0 | 1.0 | 0.00 | 0.02 | 0.00 | 65 | 1018.2 |
| 20260902044602 | 66 | 0 | 0.0 | 2.0 | 0.00 | 0.02 | 0.00 | 59 | 1018.2 |
| 20260902044039 | 66 | 0 | 0.0 | 2.0 | 0.00 | 0.02 | 0.00 | 58 | 1018.3 |
| 20260902043538 | 66 | 328 | 0.0 | 3.0 | 0.00 | 0.02 | 0.00 | 58 | 1018.3 |
| 20260902043110 | 66 | 0 | 1.0 | 3.0 | 0.00 | 0.02 | 0.00 | 58 | 1018.3 |
| 20260902042538 | 66 | 129 | 1.0 | 5.0 | 0.00 | 0.02 | 0.00 | 57 | 1018.2 |
| 20260902042039 | 67 | 0 | 2.0 | 5.0 | 0.00 | 0.02 | 0.00 | 57 | 1018.3 |
| 20260902041604 | 67 | 0 | 0.0 | 3.0 | 0.00 | 0.02 | 0.00 | 55 | 1018.3 |
| 20260902041038 | 67 | 237 | 1.0 | 3.0 | 0.00 | 0.02 | 0.00 | 56 | 1018.3 |
| 20260902040539 | 68 | 268 | 0.0 | 4.0 | 0.00 | 0.02 | 0.00 | 59 | 1018.3 |
| 20260902040105 | 68 | 268 | 1.0 | 4.0 | 0.00 | 0.02 | 0.00 | 53 | 1018.2 |